sensor_id;sensor_type;location;lat;lon;timestamp;pressure;altitude;pressure_sealevel;temperature;humidity
34696;BME280;20918;51.138;17.370;2022-09-09T00:02:02;99794.17;;;15.74;87.61
34696;BME280;20918;51.138;17.370;2022-09-09T00:05:31;99797.27;;;15.71;87.59
34696;BME280;20918;51.138;17.370;2022-09-09T00:11:47;99805.08;;;15.65;87.56
34696;BME280;20918;51.138;17.370;2022-09-09T00:15:00;99798.19;;;15.60;87.42
34696;BME280;20918;51.138;17.370;2022-09-09T00:21:36;99811.05;;;15.54;87.20
34696;BME280;20918;51.138;17.370;2022-09-09T00:24:54;99808.88;;;15.47;87.11
34696;BME280;20918;51.138;17.370;2022-09-09T00:27:57;99810.93;;;15.45;87.16
34696;BME280;20918;51.138;17.370;2022-09-09T00:31:04;99808.38;;;15.41;86.88
34696;BME280;20918;51.138;17.370;2022-09-09T00:34:20;99807.34;;;15.35;86.70
34696;BME280;20918;51.138;17.370;2022-09-09T00:37:24;99804.57;;;15.33;86.79
34696;BME280;20918;51.138;17.370;2022-09-09T00:40:35;99805.50;;;15.29;86.76
34696;BME280;20918;51.138;17.370;2022-09-09T00:43:41;99801.28;;;15.24;86.69
34696;BME280;20918;51.138;17.370;2022-09-09T00:57:31;99811.31;;;15.09;86.70
34696;BME280;20918;51.138;17.370;2022-09-09T01:00:46;99808.45;;;15.04;86.82
34696;BME280;20918;51.138;17.370;2022-09-09T01:03:52;99811.73;;;14.99;86.88
34696;BME280;20918;51.138;17.370;2022-09-09T01:06:59;99811.39;;;14.91;86.81
34696;BME280;20918;51.138;17.370;2022-09-09T01:10:07;99811.50;;;14.87;86.86
34696;BME280;20918;51.138;17.370;2022-09-09T01:13:19;99813.44;;;14.83;87.05
34696;BME280;20918;51.138;17.370;2022-09-09T01:16:25;99809.09;;;14.75;87.10
34696;BME280;20918;51.138;17.370;2022-09-09T01:26:15;99818.43;;;14.68;87.33
34696;BME280;20918;51.138;17.370;2022-09-09T01:29:21;99821.39;;;14.63;86.93
34696;BME280;20918;51.138;17.370;2022-09-09T01:32:54;99824.24;;;14.61;87.24
34696;BME280;20918;51.138;17.370;2022-09-09T01:36:06;99823.20;;;14.55;87.03
34696;BME280;20918;51.138;17.370;2022-09-09T01:39:24;99826.97;;;14.50;86.89
34696;BME280;20918;51.138;17.370;2022-09-09T01:42:28;99833.08;;;14.44;86.72
34696;BME280;20918;51.138;17.370;2022-09-09T01:45:30;99833.36;;;14.39;86.61
34696;BME280;20918;51.138;17.370;2022-09-09T01:48:32;99832.95;;;14.35;86.55
34696;BME280;20918;51.138;17.370;2022-09-09T01:51:38;99830.16;;;14.32;87.07
34696;BME280;20918;51.138;17.370;2022-09-09T01:54:42;99834.26;;;14.28;86.92
34696;BME280;20918;51.138;17.370;2022-09-09T02:04:41;99837.32;;;14.25;87.34
34696;BME280;20918;51.138;17.370;2022-09-09T02:07:51;99844.70;;;14.23;87.58
34696;BME280;20918;51.138;17.370;2022-09-09T02:11:05;99830.72;;;14.21;87.94
34696;BME280;20918;51.138;17.370;2022-09-09T02:14:31;99835.75;;;14.20;88.06
34696;BME280;20918;51.138;17.370;2022-09-09T02:17:40;99843.33;;;14.17;87.96
34696;BME280;20918;51.138;17.370;2022-09-09T02:20:48;99846.58;;;14.12;87.84
34696;BME280;20918;51.138;17.370;2022-09-09T02:23:50;99845.80;;;14.01;87.52
34696;BME280;20918;51.138;17.370;2022-09-09T02:26:55;99848.31;;;13.92;87.64
34696;BME280;20918;51.138;17.370;2022-09-09T02:30:00;99853.39;;;13.86;87.64
34696;BME280;20918;51.138;17.370;2022-09-09T02:33:11;99855.63;;;13.83;87.70
34696;BME280;20918;51.138;17.370;2022-09-09T02:36:23;99860.63;;;13.82;87.91
34696;BME280;20918;51.138;17.370;2022-09-09T02:39:25;99856.84;;;13.80;87.94
34696;BME280;20918;51.138;17.370;2022-09-09T02:42:27;99855.17;;;13.79;87.95
34696;BME280;20918;51.138;17.370;2022-09-09T02:45:43;99861.72;;;13.77;87.72
34696;BME280;20918;51.138;17.370;2022-09-09T02:49:00;99865.63;;;13.74;87.80
34696;BME280;20918;51.138;17.370;2022-09-09T02:52:08;99862.63;;;13.73;87.92
34696;BME280;20918;51.138;17.370;2022-09-09T02:55:24;99867.02;;;13.70;87.72
34696;BME280;20918;51.138;17.370;2022-09-09T02:58:33;99878.06;;;13.67;87.64
34696;BME280;20918;51.138;17.370;2022-09-09T03:01:36;99878.24;;;13.65;87.66
34696;BME280;20918;51.138;17.370;2022-09-09T03:04:40;99881.63;;;13.63;87.69
34696;BME280;20918;51.138;17.370;2022-09-09T03:07:42;99883.48;;;13.63;87.76
34696;BME280;20918;51.138;17.370;2022-09-09T03:10:44;99875.02;;;13.59;87.60
34696;BME280;20918;51.138;17.370;2022-09-09T03:13:47;99878.89;;;13.57;87.82
34696;BME280;20918;51.138;17.370;2022-09-09T03:16:49;99880.48;;;13.51;87.64
34696;BME280;20918;51.138;17.370;2022-09-09T03:19:51;99881.46;;;13.43;87.55
34696;BME280;20918;51.138;17.370;2022-09-09T03:22:54;99894.14;;;13.41;87.53
34696;BME280;20918;51.138;17.370;2022-09-09T03:25:57;99890.19;;;13.37;87.35
34696;BME280;20918;51.138;17.370;2022-09-09T03:29:01;99888.50;;;13.30;87.13
34696;BME280;20918;51.138;17.370;2022-09-09T03:32:03;99901.35;;;13.26;87.04
34696;BME280;20918;51.138;17.370;2022-09-09T03:35:05;99894.73;;;13.22;87.48
34696;BME280;20918;51.138;17.370;2022-09-09T03:38:07;99895.29;;;13.17;87.44
34696;BME280;20918;51.138;17.370;2022-09-09T03:41:08;99888.88;;;13.12;87.70
34696;BME280;20918;51.138;17.370;2022-09-09T03:44:10;99893.97;;;13.07;87.85
34696;BME280;20918;51.138;17.370;2022-09-09T03:47:12;99886.70;;;13.00;87.86
34696;BME280;20918;51.138;17.370;2022-09-09T03:50:14;99903.71;;;12.99;88.00
34696;BME280;20918;51.138;17.370;2022-09-09T03:53:19;99910.92;;;12.95;87.95
34696;BME280;20918;51.138;17.370;2022-09-09T03:56:22;99909.59;;;12.84;87.69
34696;BME280;20918;51.138;17.370;2022-09-09T03:59:24;99908.83;;;12.65;87.44
34696;BME280;20918;51.138;17.370;2022-09-09T04:02:26;99910.49;;;12.51;87.59
34696;BME280;20918;51.138;17.370;2022-09-09T04:05:27;99910.89;;;12.44;87.94
34696;BME280;20918;51.138;17.370;2022-09-09T04:08:28;99919.89;;;12.43;88.44
34696;BME280;20918;51.138;17.370;2022-09-09T04:11:32;99920.41;;;12.42;88.42
34696;BME280;20918;51.138;17.370;2022-09-09T04:14:34;99919.10;;;12.38;88.21
34696;BME280;20918;51.138;17.370;2022-09-09T04:17:38;99923.38;;;12.28;88.29
34696;BME280;20918;51.138;17.370;2022-09-09T04:20:39;99922.36;;;12.15;87.89
34696;BME280;20918;51.138;17.370;2022-09-09T04:23:40;99926.11;;;12.05;88.17
34696;BME280;20918;51.138;17.370;2022-09-09T04:26:42;99921.17;;;11.98;88.12
34696;BME280;20918;51.138;17.370;2022-09-09T04:29:44;99928.02;;;11.97;88.36
34696;BME280;20918;51.138;17.370;2022-09-09T04:32:47;99934.83;;;11.95;88.62
34696;BME280;20918;51.138;17.370;2022-09-09T04:35:49;99930.80;;;11.99;89.11
34696;BME280;20918;51.138;17.370;2022-09-09T04:38:52;99928.28;;;12.02;88.75
34696;BME280;20918;51.138;17.370;2022-09-09T04:41:53;99928.42;;;12.04;88.71
34696;BME280;20918;51.138;17.370;2022-09-09T04:44:55;99930.58;;;12.05;88.33
34696;BME280;20918;51.138;17.370;2022-09-09T04:47:57;99925.03;;;12.10;88.95
34696;BME280;20918;51.138;17.370;2022-09-09T04:51:01;99932.12;;;12.18;89.21
34696;BME280;20918;51.138;17.370;2022-09-09T04:54:05;99931.22;;;12.26;89.20
34696;BME280;20918;51.138;17.370;2022-09-09T04:57:06;99931.16;;;12.30;89.04
34696;BME280;20918;51.138;17.370;2022-09-09T05:00:09;99932.41;;;12.38;89.03
34696;BME280;20918;51.138;17.370;2022-09-09T05:03:12;99932.18;;;12.44;88.83
34696;BME280;20918;51.138;17.370;2022-09-09T05:06:20;99937.78;;;12.49;88.86
34696;BME280;20918;51.138;17.370;2022-09-09T05:09:23;99937.53;;;12.59;89.30
34696;BME280;20918;51.138;17.370;2022-09-09T05:12:25;99935.94;;;12.79;89.61
34696;BME280;20918;51.138;17.370;2022-09-09T05:15:26;99938.18;;;13.22;90.26
34696;BME280;20918;51.138;17.370;2022-09-09T05:18:27;99928.25;;;13.85;90.93
34696;BME280;20918;51.138;17.370;2022-09-09T05:21:29;99936.18;;;14.56;91.04
34696;BME280;20918;51.138;17.370;2022-09-09T05:24:31;99931.02;;;15.27;90.69
34696;BME280;20918;51.138;17.370;2022-09-09T05:27:34;99938.54;;;15.91;89.88
34696;BME280;20918;51.138;17.370;2022-09-09T05:30:35;99931.34;;;16.54;88.68
34696;BME280;20918;51.138;17.370;2022-09-09T05:33:40;99935.20;;;17.07;87.84
34696;BME280;20918;51.138;17.370;2022-09-09T05:36:41;99940.81;;;17.69;87.20
34696;BME280;20918;51.138;17.370;2022-09-09T05:39:44;99935.48;;;18.28;86.00
34696;BME280;20918;51.138;17.370;2022-09-09T05:42:45;99935.08;;;18.77;84.80
34696;BME280;20918;51.138;17.370;2022-09-09T05:45:47;99932.80;;;19.20;83.52
34696;BME280;20918;51.138;17.370;2022-09-09T05:48:50;99934.39;;;19.61;82.37
34696;BME280;20918;51.138;17.370;2022-09-09T05:51:53;99937.28;;;20.01;81.16
34696;BME280;20918;51.138;17.370;2022-09-09T05:54:54;99949.59;;;20.32;80.26
34696;BME280;20918;51.138;17.370;2022-09-09T05:57:57;99940.75;;;20.70;79.40
34696;BME280;20918;51.138;17.370;2022-09-09T06:04:12;99946.75;;;21.72;78.13
34696;BME280;20918;51.138;17.370;2022-09-09T06:07:13;99944.64;;;22.08;76.77
34696;BME280;20918;51.138;17.370;2022-09-09T06:10:15;99946.09;;;22.32;75.68
34696;BME280;20918;51.138;17.370;2022-09-09T06:13:16;99947.80;;;22.58;75.11
34696;BME280;20918;51.138;17.370;2022-09-09T06:16:25;99938.35;;;22.80;74.03
34696;BME280;20918;51.138;17.370;2022-09-09T06:19:24;99947.27;;;23.00;72.72
34696;BME280;20918;51.138;17.370;2022-09-09T06:22:28;99951.80;;;23.16;71.92
34696;BME280;20918;51.138;17.370;2022-09-09T06:25:30;99943.25;;;23.27;71.11
34696;BME280;20918;51.138;17.370;2022-09-09T06:28:34;99941.56;;;23.48;70.45
34696;BME280;20918;51.138;17.370;2022-09-09T06:31:36;99946.99;;;23.75;69.59
34696;BME280;20918;51.138;17.370;2022-09-09T06:34:40;99934.38;;;23.88;68.72
34696;BME280;20918;51.138;17.370;2022-09-09T06:37:46;99931.85;;;24.14;68.25
34696;BME280;20918;51.138;17.370;2022-09-09T06:40:56;99933.01;;;24.26;67.26
34696;BME280;20918;51.138;17.370;2022-09-09T06:43:59;99929.86;;;24.42;66.53
34696;BME280;20918;51.138;17.370;2022-09-09T06:47:06;99933.70;;;24.48;65.92
34696;BME280;20918;51.138;17.370;2022-09-09T06:50:08;99930.17;;;24.45;65.27
34696;BME280;20918;51.138;17.370;2022-09-09T06:53:12;99925.36;;;24.60;64.82
34696;BME280;20918;51.138;17.370;2022-09-09T06:56:21;99934.94;;;24.75;64.51
34696;BME280;20918;51.138;17.370;2022-09-09T06:59:38;99941.28;;;25.04;63.81
34696;BME280;20918;51.138;17.370;2022-09-09T07:02:40;99945.89;;;25.11;63.23
34696;BME280;20918;51.138;17.370;2022-09-09T07:05:43;99943.80;;;25.21;62.26
34696;BME280;20918;51.138;17.370;2022-09-09T07:08:57;99932.87;;;25.11;61.81
34696;BME280;20918;51.138;17.370;2022-09-09T07:11:58;99933.48;;;25.28;61.92
34696;BME280;20918;51.138;17.370;2022-09-09T07:15:01;99939.19;;;25.24;61.14
34696;BME280;20918;51.138;17.370;2022-09-09T07:18:03;99944.34;;;25.28;61.24
34696;BME280;20918;51.138;17.370;2022-09-09T07:21:06;99939.18;;;25.21;60.54
34696;BME280;20918;51.138;17.370;2022-09-09T07:24:10;99951.41;;;25.26;59.87
34696;BME280;20918;51.138;17.370;2022-09-09T07:27:12;99951.44;;;25.32;59.73
34696;BME280;20918;51.138;17.370;2022-09-09T07:30:14;99954.16;;;25.47;59.43
34696;BME280;20918;51.138;17.370;2022-09-09T07:33:16;99961.26;;;25.66;59.44
34696;BME280;20918;51.138;17.370;2022-09-09T07:36:28;99956.94;;;25.96;58.85
34696;BME280;20918;51.138;17.370;2022-09-09T07:39:31;99960.98;;;26.24;58.51
34696;BME280;20918;51.138;17.370;2022-09-09T07:42:33;99956.06;;;26.54;57.88
34696;BME280;20918;51.138;17.370;2022-09-09T07:45:35;99946.03;;;26.26;56.50
34696;BME280;20918;51.138;17.370;2022-09-09T07:48:38;99949.00;;;26.37;56.75
34696;BME280;20918;51.138;17.370;2022-09-09T07:51:42;99949.52;;;26.55;56.25
34696;BME280;20918;51.138;17.370;2022-09-09T07:54:46;99947.02;;;26.74;54.82
34696;BME280;20918;51.138;17.370;2022-09-09T07:57:48;99957.66;;;26.70;55.17
34696;BME280;20918;51.138;17.370;2022-09-09T08:00:51;99960.36;;;26.73;54.90
34696;BME280;20918;51.138;17.370;2022-09-09T08:03:58;99967.47;;;26.48;54.54
34696;BME280;20918;51.138;17.370;2022-09-09T08:07:05;99975.16;;;26.03;54.81
34696;BME280;20918;51.138;17.370;2022-09-09T08:10:09;99981.10;;;25.74;54.99
34696;BME280;20918;51.138;17.370;2022-09-09T08:13:12;99971.31;;;25.65;54.93
34696;BME280;20918;51.138;17.370;2022-09-09T08:16:23;99975.14;;;25.87;54.92
34696;BME280;20918;51.138;17.370;2022-09-09T08:19:26;99975.44;;;25.93;53.32
34696;BME280;20918;51.138;17.370;2022-09-09T08:22:30;99975.70;;;25.94;53.50
34696;BME280;20918;51.138;17.370;2022-09-09T08:25:31;99968.07;;;26.04;54.04
34696;BME280;20918;51.138;17.370;2022-09-09T08:28:35;99975.68;;;26.20;53.85
34696;BME280;20918;51.138;17.370;2022-09-09T08:31:39;99969.41;;;26.53;53.70
34696;BME280;20918;51.138;17.370;2022-09-09T08:34:48;99965.98;;;26.92;53.76
34696;BME280;20918;51.138;17.370;2022-09-09T08:37:54;99971.98;;;26.91;52.01
34696;BME280;20918;51.138;17.370;2022-09-09T08:41:00;99968.56;;;26.55;52.00
34696;BME280;20918;51.138;17.370;2022-09-09T08:51:07;99965.17;;;26.91;50.61
34696;BME280;20918;51.138;17.370;2022-09-09T08:54:11;99955.86;;;27.05;49.93
34696;BME280;20918;51.138;17.370;2022-09-09T08:57:21;99964.81;;;27.13;50.39
34696;BME280;20918;51.138;17.370;2022-09-09T09:00:33;99957.66;;;27.33;50.31
34696;BME280;20918;51.138;17.370;2022-09-09T09:03:42;99957.92;;;27.31;49.12
34696;BME280;20918;51.138;17.370;2022-09-09T09:10:28;99964.31;;;27.06;48.58
34696;BME280;20918;51.138;17.370;2022-09-09T09:17:18;99968.30;;;26.56;47.85
34696;BME280;20918;51.138;17.370;2022-09-09T09:20:23;99971.56;;;26.38;48.16
34696;BME280;20918;51.138;17.370;2022-09-09T09:24:02;99978.38;;;26.51;48.16
34696;BME280;20918;51.138;17.370;2022-09-09T09:27:10;99969.59;;;26.77;48.18
34696;BME280;20918;51.138;17.370;2022-09-09T09:30:19;99965.94;;;27.04;47.90
34696;BME280;20918;51.138;17.370;2022-09-09T09:33:47;99962.34;;;27.14;47.94
34696;BME280;20918;51.138;17.370;2022-09-09T09:36:56;99963.87;;;27.41;47.95
34696;BME280;20918;51.138;17.370;2022-09-09T09:40:18;99971.08;;;27.63;47.33
34696;BME280;20918;51.138;17.370;2022-09-09T09:43:21;99972.63;;;27.35;46.14
34696;BME280;20918;51.138;17.370;2022-09-09T09:46:26;99979.90;;;26.88;46.99
34696;BME280;20918;51.138;17.370;2022-09-09T09:49:30;99974.80;;;26.63;47.55
34696;BME280;20918;51.138;17.370;2022-09-09T09:52:33;99973.19;;;26.59;46.55
34696;BME280;20918;51.138;17.370;2022-09-09T09:55:44;99977.84;;;26.33;47.15
34696;BME280;20918;51.138;17.370;2022-09-09T10:02:18;99978.16;;;25.96;47.42
34696;BME280;20918;51.138;17.370;2022-09-09T10:05:25;99974.03;;;25.78;48.14
34696;BME280;20918;51.138;17.370;2022-09-09T10:08:34;99978.63;;;25.67;48.48
34696;BME280;20918;51.138;17.370;2022-09-09T10:19:01;99976.20;;;25.66;49.17
34696;BME280;20918;51.138;17.370;2022-09-09T10:25:36;99978.36;;;25.61;48.02
34696;BME280;20918;51.138;17.370;2022-09-09T10:39:06;99984.94;;;25.86;47.11
34696;BME280;20918;51.138;17.370;2022-09-09T10:42:30;99988.95;;;25.58;47.19
34696;BME280;20918;51.138;17.370;2022-09-09T10:45:54;99987.56;;;25.45;47.83
34696;BME280;20918;51.138;17.370;2022-09-09T10:49:12;99979.17;;;25.52;48.63
34696;BME280;20918;51.138;17.370;2022-09-09T10:52:21;99974.30;;;25.69;48.28
34696;BME280;20918;51.138;17.370;2022-09-09T10:55:41;99977.87;;;26.03;47.92
34696;BME280;20918;51.138;17.370;2022-09-09T10:58:53;99974.28;;;26.35;47.54
34696;BME280;20918;51.138;17.370;2022-09-09T11:05:28;99967.77;;;26.44;46.94
34696;BME280;20918;51.138;17.370;2022-09-09T11:08:38;99965.03;;;26.57;46.41
34696;BME280;20918;51.138;17.370;2022-09-09T11:18:14;99979.20;;;26.33;45.82
34696;BME280;20918;51.138;17.370;2022-09-09T11:21:27;99976.49;;;26.18;45.77
34696;BME280;20918;51.138;17.370;2022-09-09T11:31:56;99973.73;;;26.59;45.46
34696;BME280;20918;51.138;17.370;2022-09-09T11:35:20;99985.37;;;26.77;45.94
34696;BME280;20918;51.138;17.370;2022-09-09T11:38:28;99988.17;;;26.36;44.86
34696;BME280;20918;51.138;17.370;2022-09-09T11:41:48;99975.68;;;26.10;45.62
34696;BME280;20918;51.138;17.370;2022-09-09T11:44:51;99966.74;;;26.02;45.77
34696;BME280;20918;51.138;17.370;2022-09-09T11:47:56;99973.25;;;26.19;45.88
34696;BME280;20918;51.138;17.370;2022-09-09T11:51:11;99966.97;;;26.23;45.57
34696;BME280;20918;51.138;17.370;2022-09-09T11:57:36;99962.37;;;26.06;45.16
34696;BME280;20918;51.138;17.370;2022-09-09T12:00:49;99972.95;;;25.74;45.32
34696;BME280;20918;51.138;17.370;2022-09-09T12:03:51;99972.39;;;25.57;45.87
34696;BME280;20918;51.138;17.370;2022-09-09T12:10:37;99964.83;;;25.94;44.93
34696;BME280;20918;51.138;17.370;2022-09-09T12:13:51;99963.73;;;25.96;45.05
34696;BME280;20918;51.138;17.370;2022-09-09T12:16:47;99968.91;;;26.07;45.35
34696;BME280;20918;51.138;17.370;2022-09-09T12:23:40;99967.22;;;26.39;45.14
34696;BME280;20918;51.138;17.370;2022-09-09T12:27:11;99967.81;;;26.19;44.60
34696;BME280;20918;51.138;17.370;2022-09-09T12:30:19;99968.36;;;26.00;44.60
34696;BME280;20918;51.138;17.370;2022-09-09T12:33:22;99954.48;;;26.09;44.19
34696;BME280;20918;51.138;17.370;2022-09-09T12:36:27;99944.70;;;26.11;44.28
34696;BME280;20918;51.138;17.370;2022-09-09T12:39:43;99950.91;;;26.29;44.21
34696;BME280;20918;51.138;17.370;2022-09-09T12:42:52;99948.73;;;26.42;43.41
34696;BME280;20918;51.138;17.370;2022-09-09T12:46:01;99947.92;;;26.36;44.02
34696;BME280;20918;51.138;17.370;2022-09-09T12:49:05;99952.00;;;26.38;43.61
34696;BME280;20918;51.138;17.370;2022-09-09T12:52:13;99949.80;;;26.35;43.31
34696;BME280;20918;51.138;17.370;2022-09-09T12:55:20;99943.86;;;26.26;43.40
34696;BME280;20918;51.138;17.370;2022-09-09T12:58:26;99950.98;;;25.96;42.75
34696;BME280;20918;51.138;17.370;2022-09-09T13:01:32;99961.78;;;25.55;43.91
34696;BME280;20918;51.138;17.370;2022-09-09T13:04:34;99965.82;;;25.32;44.06
34696;BME280;20918;51.138;17.370;2022-09-09T13:07:36;99966.88;;;25.31;44.14
34696;BME280;20918;51.138;17.370;2022-09-09T13:10:44;99956.58;;;25.33;43.86
34696;BME280;20918;51.138;17.370;2022-09-09T13:13:50;99940.04;;;25.37;44.20
34696;BME280;20918;51.138;17.370;2022-09-09T13:17:01;99938.14;;;25.40;43.82
34696;BME280;20918;51.138;17.370;2022-09-09T13:20:05;99948.97;;;25.30;43.46
34696;BME280;20918;51.138;17.370;2022-09-09T13:23:10;99949.77;;;25.28;44.04
34696;BME280;20918;51.138;17.370;2022-09-09T13:26:26;99946.78;;;25.22;44.29
34696;BME280;20918;51.138;17.370;2022-09-09T13:29:28;99948.63;;;25.14;43.85
34696;BME280;20918;51.138;17.370;2022-09-09T13:32:31;99939.44;;;25.20;43.66
34696;BME280;20918;51.138;17.370;2022-09-09T13:35:33;99926.89;;;25.09;43.86
34696;BME280;20918;51.138;17.370;2022-09-09T13:38:55;99924.19;;;25.14;43.80
34696;BME280;20918;51.138;17.370;2022-09-09T13:42:00;99924.80;;;25.31;43.77
34696;BME280;20918;51.138;17.370;2022-09-09T13:45:05;99921.82;;;25.30;44.46
34696;BME280;20918;51.138;17.370;2022-09-09T13:48:10;99927.80;;;25.42;44.29
34696;BME280;20918;51.138;17.370;2022-09-09T13:51:22;99925.11;;;25.53;44.25
34696;BME280;20918;51.138;17.370;2022-09-09T13:54:35;99921.05;;;25.58;43.68
34696;BME280;20918;51.138;17.370;2022-09-09T13:57:37;99921.03;;;25.40;44.44
34696;BME280;20918;51.138;17.370;2022-09-09T14:00:39;99912.31;;;25.30;43.95
34696;BME280;20918;51.138;17.370;2022-09-09T14:03:40;99903.08;;;25.21;43.64
34696;BME280;20918;51.138;17.370;2022-09-09T14:06:42;99909.86;;;25.21;43.35
34696;BME280;20918;51.138;17.370;2022-09-09T14:09:45;99905.80;;;25.23;43.65
34696;BME280;20918;51.138;17.370;2022-09-09T14:12:48;99908.26;;;25.35;43.69
34696;BME280;20918;51.138;17.370;2022-09-09T14:15:49;99903.02;;;25.13;43.61
34696;BME280;20918;51.138;17.370;2022-09-09T14:18:51;99912.17;;;24.84;43.36
34696;BME280;20918;51.138;17.370;2022-09-09T14:21:52;99908.56;;;24.66;43.92
34696;BME280;20918;51.138;17.370;2022-09-09T14:24:55;99915.08;;;24.65;44.08
34696;BME280;20918;51.138;17.370;2022-09-09T14:41:53;99911.84;;;24.70;44.72
34696;BME280;20918;51.138;17.370;2022-09-09T14:44:54;99921.59;;;24.69;45.12
34696;BME280;20918;51.138;17.370;2022-09-09T14:48:02;99921.05;;;24.64;45.37
34696;BME280;20918;51.138;17.370;2022-09-09T14:51:09;99924.77;;;24.48;45.96
34696;BME280;20918;51.138;17.370;2022-09-09T14:54:17;99915.17;;;24.37;46.15
34696;BME280;20918;51.138;17.370;2022-09-09T14:57:19;99911.90;;;24.30;46.38
34696;BME280;20918;51.138;17.370;2022-09-09T15:00:20;99911.05;;;24.25;47.01
34696;BME280;20918;51.138;17.370;2022-09-09T15:03:23;99911.84;;;24.23;46.88
34696;BME280;20918;51.138;17.370;2022-09-09T15:06:34;99913.43;;;24.19;46.68
34696;BME280;20918;51.138;17.370;2022-09-09T15:09:51;99906.35;;;24.12;47.00
34696;BME280;20918;51.138;17.370;2022-09-09T15:12:41;99900.69;;;24.14;47.35
34696;BME280;20918;51.138;17.370;2022-09-09T15:15:46;99895.77;;;24.08;47.69
34696;BME280;20918;51.138;17.370;2022-09-09T15:18:50;99893.77;;;23.96;47.79
34696;BME280;20918;51.138;17.370;2022-09-09T15:21:58;99878.86;;;23.91;48.25
34696;BME280;20918;51.138;17.370;2022-09-09T15:25:00;99881.35;;;23.65;48.19
34696;BME280;20918;51.138;17.370;2022-09-09T15:28:01;99879.02;;;23.47;48.31
34696;BME280;20918;51.138;17.370;2022-09-09T15:31:09;99875.88;;;23.31;48.95
34696;BME280;20918;51.138;17.370;2022-09-09T15:34:20;99882.30;;;23.22;49.55
34696;BME280;20918;51.138;17.370;2022-09-09T15:37:23;99883.95;;;23.25;49.86
34696;BME280;20918;51.138;17.370;2022-09-09T15:40:27;99878.03;;;23.26;50.09
34696;BME280;20918;51.138;17.370;2022-09-09T15:43:30;99876.91;;;23.24;50.43
34696;BME280;20918;51.138;17.370;2022-09-09T15:46:33;99880.98;;;23.24;50.51
34696;BME280;20918;51.138;17.370;2022-09-09T15:49:39;99884.25;;;23.26;50.84
34696;BME280;20918;51.138;17.370;2022-09-09T15:52:40;99888.88;;;23.29;51.24
34696;BME280;20918;51.138;17.370;2022-09-09T15:55:41;99887.77;;;23.27;51.14
34696;BME280;20918;51.138;17.370;2022-09-09T15:58:43;99886.61;;;23.18;51.45
34696;BME280;20918;51.138;17.370;2022-09-09T16:01:44;99887.81;;;23.05;51.81
34696;BME280;20918;51.138;17.370;2022-09-09T16:04:45;99892.35;;;22.99;51.96
34696;BME280;20918;51.138;17.370;2022-09-09T16:33:03;99901.33;;;22.83;53.54
34696;BME280;20918;51.138;17.370;2022-09-09T16:36:06;99909.55;;;22.69;53.74
34696;BME280;20918;51.138;17.370;2022-09-09T16:39:11;99912.64;;;22.55;54.21
34696;BME280;20918;51.138;17.370;2022-09-09T16:42:17;99909.22;;;22.43;54.36
34696;BME280;20918;51.138;17.370;2022-09-09T16:45:18;99902.42;;;22.21;54.56
34696;BME280;20918;51.138;17.370;2022-09-09T16:48:20;99903.14;;;21.97;54.85
34696;BME280;20918;51.138;17.370;2022-09-09T16:51:24;99906.12;;;21.81;54.98
34696;BME280;20918;51.138;17.370;2022-09-09T16:54:28;99907.42;;;21.62;55.09
34696;BME280;20918;51.138;17.370;2022-09-09T16:57:30;99905.14;;;21.39;55.41
34696;BME280;20918;51.138;17.370;2022-09-09T17:00:31;99906.59;;;21.16;56.21
34696;BME280;20918;51.138;17.370;2022-09-09T17:03:34;99908.80;;;20.90;57.22
34696;BME280;20918;51.138;17.370;2022-09-09T17:06:36;99910.89;;;20.74;57.71
34696;BME280;20918;51.138;17.370;2022-09-09T17:09:38;99916.80;;;20.59;58.06
34696;BME280;20918;51.138;17.370;2022-09-09T17:12:40;99916.67;;;20.42;58.51
34696;BME280;20918;51.138;17.370;2022-09-09T17:15:42;99913.21;;;20.32;59.02
34696;BME280;20918;51.138;17.370;2022-09-09T17:18:44;99912.00;;;20.26;59.23
34696;BME280;20918;51.138;17.370;2022-09-09T17:21:47;99912.88;;;20.17;59.58
34696;BME280;20918;51.138;17.370;2022-09-09T17:24:49;99914.05;;;20.09;59.93
34696;BME280;20918;51.138;17.370;2022-09-09T17:27:50;99921.00;;;19.96;60.30
34696;BME280;20918;51.138;17.370;2022-09-09T17:30:52;99918.89;;;19.86;60.77
34696;BME280;20918;51.138;17.370;2022-09-09T17:33:54;99930.47;;;19.75;61.24
34696;BME280;20918;51.138;17.370;2022-09-09T17:36:56;99933.27;;;19.68;62.25
34696;BME280;20918;51.138;17.370;2022-09-09T17:39:58;99927.88;;;19.59;63.03
34696;BME280;20918;51.138;17.370;2022-09-09T17:43:00;99927.56;;;19.46;63.29
34696;BME280;20918;51.138;17.370;2022-09-09T17:46:15;99932.77;;;19.30;63.81
34696;BME280;20918;51.138;17.370;2022-09-09T17:49:32;99928.23;;;19.12;64.37
34696;BME280;20918;51.138;17.370;2022-09-09T17:52:34;99920.94;;;19.00;64.74
34696;BME280;20918;51.138;17.370;2022-09-09T17:55:36;99927.16;;;18.92;64.58
34696;BME280;20918;51.138;17.370;2022-09-09T17:58:38;99922.02;;;18.90;64.67
34696;BME280;20918;51.138;17.370;2022-09-09T18:01:42;99923.29;;;18.88;64.94
34696;BME280;20918;51.138;17.370;2022-09-09T18:04:46;99929.72;;;18.87;64.64
34696;BME280;20918;51.138;17.370;2022-09-09T18:07:47;99935.53;;;18.74;64.84
34696;BME280;20918;51.138;17.370;2022-09-09T18:10:52;99934.67;;;18.55;65.11
34696;BME280;20918;51.138;17.370;2022-09-09T18:13:58;99935.89;;;18.50;65.37
34696;BME280;20918;51.138;17.370;2022-09-09T18:17:02;99934.31;;;18.52;65.41
34696;BME280;20918;51.138;17.370;2022-09-09T18:20:06;99938.34;;;18.52;65.45
34696;BME280;20918;51.138;17.370;2022-09-09T18:23:08;99942.89;;;18.51;65.57
34696;BME280;20918;51.138;17.370;2022-09-09T18:26:13;99942.58;;;18.41;65.78
34696;BME280;20918;51.138;17.370;2022-09-09T18:29:19;99945.78;;;18.22;66.23
34696;BME280;20918;51.138;17.370;2022-09-09T18:32:24;99949.91;;;18.09;66.58